Flight Track Log - Related Links

Times and Time Zones

All times are in EDT time to prevent confusion due to time zone crossing. See the N755CC flight status page for this flight to view local times or setup timezone preferences in your user account.

Time Position Orientation Groundspeed Altitude Reporting Facility
EDT Latitude Longitude Course Direction KTS MPH feet Rate Location/Type
Thu 11:04:05 AM 41.7636 -71.1869 316° Northwest 195 224 1,500  Level Boston Center
Thu 11:05:06 AM 41.8128 -71.1939 354° North 187 215 1,500 -45 Level Boston Center
Thu 11:06:19 AM 41.5594 -71.2686 192° South 79 91 1,400 456 Descending Boston Center
Thu 11:07:44 AM 41.5867 -71.2411 37° Northeast 88 101 2,700 54 Climbing Boston Center
Thu 11:08:11 AM 41.8408 -71.3292 346° North 185 213 1,500 787 Descending Boston Center
Thu 11:08:45 AM 41.6036 -71.2214 161° South 85 98 3,500  Climbing Boston Center
Thu 11:09:00 AM 41.6972 -71.5014 316° Northwest  Level FlightAware Approximate
Thu 11:09:13 AM 41.7972 -71.3653 331° Northwest 185 213 1,500  Level Boston Center
Thu 11:09:31 AM 41.6214 -71.2078 146° Southeast 87 100 4,200  Climbing Boston Center
Thu 11:10:13 AM 41.7722 -71.4189 314° West 192 221 1,500 667 Descending Boston Center
Thu 11:10:25 AM 41.6372 -71.1933 129° Southeast 85 98 4,800  Climbing Boston Center
Thu 11:11:14 AM 41.8200 -71.4250 317° Northwest 179 206 1,500 -1,446 Descending Boston Center
Thu 11:12:17 AM 41.8686 -71.4161 North 179 206 2,100 2,788 Climbing Boston Center
Thu 11:12:53 AM 41.6942 -71.1475 131° Southeast 121 139 6,100  Climbing Boston Center
Thu 11:13:18 AM 41.9200 -71.4039 320° Northwest 177 204 2,100 -109 Descending Boston Center
Thu 11:13:48 AM 41.7169 -71.1731 140° Southeast 124 143 6,000 200 Climbing Boston Center
Thu 11:14:18 AM 41.9183 -71.3506 327° Northwest 183 211 2,300  Descending Boston Center
Thu 11:14:48 AM 41.7319 -71.2158 152° Southeast 123 142 6,000 194 Climbing Boston Center
Thu 11:15:20 AM 41.8881 -71.2956 339° North 183 211 2,500  Descending Boston Center
Thu 11:15:35 AM 41.7447 -71.2494 167° South 123 142 6,000  Climbing Boston Center
Thu 11:16:21 AM 41.8586 -71.2447 North 179 206 2,500  Descending Boston Center
Thu 11:16:39 AM 41.7597 -71.2922 200° South 126 145 6,000  Climbing Boston Center
Thu 11:17:22 AM 41.8850 -71.2614 10° North 168 193 2,500  Descending Boston Center
Thu 11:17:37 AM 41.7747 -71.3353 207° Southwest 124 143 6,000  Climbing Boston Center
Thu 11:18:23 AM 41.8608 -71.3142 10° North 167 192 2,500  Descending Boston Center
Thu 11:18:38 AM 41.7897 -71.3783 214° Southwest 122 140 6,000 -94 Climbing Boston Center
Thu 11:19:27 AM 41.8258 -71.3411 38° Northeast 146 168 2,400  Descending Boston Center
Thu 11:20:04 AM 41.8106 -71.4350 258° West 122 140 6,000 98 Climbing Boston Center
Thu 11:20:28 AM 41.7919 -71.2978 100° East 163 188 2,500  Descending Boston Center
Thu 11:21:04 AM 41.8261 -71.4753 285° West 125 144 6,000  Climbing Boston Center
Thu 11:21:29 AM 41.7900 -71.2506 102° East 161 185 2,500  Descending Boston Center
Thu 11:21:47 AM 41.8372 -71.5053 284° West 122 140 6,000  Climbing Boston Center
Thu 11:22:29 AM 41.8278 -71.2147 92° East 162 186 2,500  Descending Boston Center
Thu 11:22:48 AM 41.8528 -71.5458 276° West 125 144 6,000  Climbing Boston Center
Thu 11:23:34 AM 41.8700 -71.1944 86° East 170 196 2,500  Descending Boston Center
Thu 11:24:43 AM 41.8836 -71.6264 273° West 125 144 6,000  Climbing Boston Center
Thu 11:25:35 AM 41.8792 -71.2975 91° East 163 188 2,500  Descending Boston Center
Thu 11:26:03 AM 41.9050 -71.6806 275° West 129 148 6,000  Climbing Boston Center
Thu 11:26:36 AM 41.8369 -71.3317 105° East 165 190 2,500  Descending Boston Center
Thu 11:26:51 AM 41.9175 -71.7142 286° West 126 145 6,000 -787 Climbing Boston Center
Thu 11:27:37 AM 41.8008 -71.3628 114° Southeast 159 183 1,700  Descending Boston Center
Thu 11:27:52 AM 41.9336 -71.7608 294° West 128 147 6,000 -667 Climbing Boston Center
Thu 11:28:40 AM 41.7675 -71.3906 121° Southeast 146 168 1,000  Descending Boston Center
Thu 11:28:52 AM 41.9486 -71.8042 301° West 128 147 6,000 -800 Climbing Boston Center
Thu 11:29:40 AM 41.7314 -71.4206 127° Southeast 142 163 200 -3,028 Descending Boston Center
Thu 11:30:41 AM 41.6986 -71.4483 212° Southwest 142 163 500 511 Climbing Boston Center
Thu 11:31:14 AM 41.6786 -71.4636 210° Southwest 149 171 1,000 952 Climbing Boston Center
Thu 11:31:44 AM 41.6619 -71.4794 215° Southwest 156 180 1,500 5,556 Climbing Boston Center
Thu 11:32:08 AM 42.0028 -71.9397 315° West 129 148 6,000 2,967 Climbing Boston Center
Thu 11:33:15 AM 42.0217 -71.9867 298° West 129 148 6,000  Level Boston Center
Thu 11:34:16 AM 42.0389 -72.0303 298° West 129 148 6,000  Level Boston Center
Thu 11:35:16 AM 42.0544 -72.0733 296° West 128 147 6,000  Level Boston Center
Thu 11:36:23 AM 42.0733 -72.1203 298° West 127 146 6,000  Level Boston Center
Thu 11:38:24 AM 42.1058 -72.2069 297° West 130 150 6,000  Level Boston Center
Thu 11:39:25 AM 42.1206 -72.2528 293° West 131 151 6,000  Level Boston Center
Thu 11:40:26 AM 42.1358 -72.2958 296° West 126 145 6,000  Level Boston Center
Thu 11:41:27 AM 42.1517 -72.3361 298° West 125 144 6,000  Level Boston Center
Thu 11:42:22 AM 42.1661 -72.3731 298° West 124 143 6,000  Level Boston Center
Thu 11:43:29 AM 42.1847 -72.4203 298° West 123 142 6,000  Level Boston Center
Thu 11:44:29 AM 42.2025 -72.4614 300° West 127 146 6,000  Level Boston Center
Thu 11:45:28 AM 42.2197 -72.5053 298° West 131 151 6,000  Level Boston Center
Thu 11:46:29 AM 42.2394 -72.5472 302° West 132 152 6,000  Level Boston Center
Thu 11:47:29 AM 42.2572 -72.5883 300° West 129 148 6,000  Level Boston Center
Thu 11:48:18 AM 42.2739 -72.6233 303° West 131 151 6,000  Level Boston Center
Thu 11:49:19 AM 42.2917 -72.6647 300° West 126 145 6,000  Level Boston Center
Thu 11:50:13 AM 42.3053 -72.7044 295° West 129 148 6,000  Level Boston Center
Thu 11:51:08 AM 42.3236 -72.7431 303° West 134 154 6,000 40 Level Boston Center
Thu 11:52:42 AM 42.3506 -72.8100 299° West 134 154 6,100  Climbing Boston Center
Thu 11:54:21 AM 42.3811 -72.8803 300° West 133 153 6,000 -38 Descending Boston Center
Thu 11:55:20 AM 42.3981 -72.9292 295° West 135 155 6,000  Level Boston Center
Thu 11:56:20 AM 42.4142 -72.9719 297° West 130 150 6,000  Level Boston Center
Thu 11:57:28 AM 42.4317 -73.0181 297° West 128 147 6,000 47 Level Boston Center
Thu 11:58:28 AM 42.4497 -73.0617 299° West 131 151 6,100 33 Climbing Boston Center
Thu 12:00:29 PM 42.4817 -73.1472 299° West 129 148 6,100 -98 Level Boston Center
Thu 12:01:32 PM 42.4944 -73.1947 290° West 134 154 5,800 -496 Descending Boston Center
Thu 12:02:30 PM 42.5000 -73.2489 278° West 146 168 5,100 -637 Descending Boston Center
Thu 12:03:25 PM 42.5042 -73.2967 277° West 141 162 4,600 -569 Descending Boston Center
Thu 12:04:26 PM 42.5100 -73.3478 279° West 138 159 4,000 -295 Descending Boston Center
Thu 12:05:27 PM 42.5164 -73.3961 280° West 129 148 4,000  Level Boston Center
Thu 12:06:28 PM 42.5189 -73.4406 274° West 121 139 4,000  Level Boston Center
Thu 12:07:28 PM 42.5231 -73.4883 277° West 122 140 4,000  Level Boston Center
Thu 12:08:29 PM 42.5278 -73.5333 278° West 121 139 4,000 -99 Level Boston Center
Thu 12:09:29 PM 42.5325 -73.5786 278° West 124 143 3,800 -450 Descending Boston Center
Thu 12:10:29 PM 42.5372 -73.6353 276° West 139 160 3,100 -400 Descending Boston Center
Thu 12:11:29 PM 42.5433 -73.6836 280° West 133 153 3,000 -269 Descending Boston Center
Thu 12:14:34 PM 42.5875 -73.7944 North 111 128 2,000 -245 Descending Boston Center
Thu 12:15:34 PM 42.6183 -73.8019 350° North 111 128 2,000 -50 Level Boston Center
Thu 12:16:33 PM 42.6506 -73.8011 North 117 135 1,900 -303 Descending Boston Center
Thu 12:17:33 PM 42.6869 -73.8019 359° North 126 145 1,400 -634 Descending Boston Center
Thu 12:18:36 PM 42.7208 -73.8044 357° North 112 129 600 -762 Descending Boston Center
Thu 12:20:00 PM 42.7333 -73.8000 North  Level FlightAware Approximate
Thu 12:20:00 PM 42.7491 -73.8020 North  Level Estimated
Thu 12:27:00 PM 42.7491 -73.8020 North  Level Estimated
Thu 12:28:00 PM 42.7491 -73.8020 North  Level Estimated
Thu 12:29:00 PM 42.7491 -73.8020 North  Level Estimated

Login

Don't have an account? Register now (free) for customized features, flight alerts, and more!